createdAt,value
2023-05-08T00:00:10.806Z,5.91
2023-05-08T00:02:40.775Z,5.82
2023-05-08T00:05:07.991Z,5.81
2023-05-08T00:07:36.737Z,5.80
2023-05-08T00:10:04.773Z,5.74
2023-05-08T00:12:31.456Z,5.67
2023-05-08T00:14:58.147Z,5.62
2023-05-08T00:17:25.204Z,5.59
2023-05-08T00:19:53.007Z,5.52
2023-05-08T00:22:19.935Z,5.49
2023-05-08T00:24:46.621Z,5.43
2023-05-08T00:27:13.474Z,5.40
2023-05-08T00:29:43.255Z,5.38
2023-05-08T00:32:10.152Z,5.32
2023-05-08T00:34:36.975Z,5.33
2023-05-08T00:37:03.760Z,5.31
2023-05-08T00:39:31.583Z,5.22
2023-05-08T00:41:58.445Z,5.23
2023-05-08T00:44:25.723Z,5.23
2023-05-08T00:46:52.561Z,5.17
2023-05-08T00:49:19.596Z,5.15
2023-05-08T00:55:06.876Z,5.03
2023-05-08T00:57:37.919Z,4.98
2023-05-08T01:00:05.866Z,4.95
2023-05-08T01:02:32.973Z,4.90
2023-05-08T01:05:00.164Z,4.84
2023-05-08T01:07:27.902Z,4.84
2023-05-08T01:09:54.683Z,4.83
2023-05-08T01:12:34.705Z,4.78
2023-05-08T01:15:12.401Z,4.74
2023-05-08T01:17:51.621Z,4.60
2023-05-08T01:20:23.881Z,4.52
2023-05-08T01:22:59.156Z,4.50
2023-05-08T01:26:01.532Z,4.49
2023-05-08T01:28:37.566Z,4.53
2023-05-08T01:31:38.662Z,4.37
2023-05-08T01:34:10.585Z,4.43
2023-05-08T01:36:45.486Z,4.42
2023-05-08T01:39:20.305Z,4.43
2023-05-08T01:41:56.318Z,4.49
2023-05-08T01:44:29.802Z,4.43
2023-05-08T01:46:57.152Z,4.39
2023-05-08T01:49:27.508Z,4.39
2023-05-08T01:52:03.082Z,4.33
2023-05-08T01:54:36.326Z,4.38
2023-05-08T01:57:04.297Z,4.37
2023-05-08T01:59:33.897Z,4.38
2023-05-08T02:02:02.495Z,4.32
2023-05-08T02:04:30.734Z,4.33
2023-05-08T02:06:58.779Z,4.28
2023-05-08T02:09:28.421Z,4.18
2023-05-08T02:11:55.582Z,4.23
2023-05-08T02:14:23.814Z,4.25
2023-05-08T02:16:54.728Z,4.22
2023-05-08T02:19:25.747Z,4.23
2023-05-08T02:21:54.310Z,4.22
2023-05-08T02:24:22.304Z,4.22
2023-05-08T02:26:50.415Z,4.19
2023-05-08T02:29:17.642Z,4.14
2023-05-08T02:31:45.670Z,4.15
2023-05-08T02:34:12.740Z,4.09
2023-05-08T02:36:40.889Z,4.01
2023-05-08T02:39:11.171Z,3.94
2023-05-08T02:41:40.646Z,3.98
2023-05-08T02:44:08.332Z,3.98
2023-05-08T02:46:44.116Z,4.03
2023-05-08T02:49:37.461Z,3.99
2023-05-08T02:52:08.048Z,3.93
2023-05-08T02:54:39.880Z,3.93
2023-05-08T02:57:34.579Z,3.93
2023-05-08T03:00:07.726Z,3.89
2023-05-08T03:02:42.272Z,3.84
2023-05-08T03:05:18.047Z,3.83
2023-05-08T03:07:50.070Z,3.79
2023-05-08T03:10:19.743Z,3.73
2023-05-08T03:12:49.777Z,3.66
2023-05-08T03:15:26.959Z,3.57
2023-05-08T03:17:57.260Z,3.50
2023-05-08T03:20:26.344Z,3.51
2023-05-08T03:22:55.493Z,3.48
2023-05-08T03:25:23.444Z,3.46
2023-05-08T03:27:52.051Z,3.49
2023-05-08T03:30:20.786Z,3.49
2023-05-08T03:32:58.854Z,3.46
2023-05-08T03:35:27.169Z,3.50
2023-05-08T03:37:54.560Z,3.58
2023-05-08T03:40:21.776Z,3.62
2023-05-08T03:42:49.634Z,3.64
2023-05-08T03:45:18.159Z,3.64
2023-05-08T03:47:45.385Z,3.69
2023-05-08T03:50:12.369Z,3.64
2023-05-08T03:52:39.642Z,3.68
2023-05-08T03:55:06.859Z,3.62
2023-05-08T03:57:57.809Z,3.67
2023-05-08T04:00:52.779Z,3.69
2023-05-08T04:03:43.987Z,3.81
2023-05-08T04:06:17.209Z,3.82
2023-05-08T04:09:02.665Z,3.84
2023-05-08T04:11:36.763Z,3.87
2023-05-08T04:14:10.263Z,3.89
2023-05-08T04:16:48.168Z,3.95
2023-05-08T04:19:20.784Z,4.11
2023-05-08T04:21:50.162Z,4.20
2023-05-08T04:24:18.323Z,4.21
2023-05-08T04:26:46.243Z,4.20
2023-05-08T04:29:14.273Z,4.26
2023-05-08T04:31:42.303Z,4.32
2023-05-08T04:34:09.857Z,4.39
2023-05-08T04:36:37.606Z,4.40
2023-05-08T04:39:05.794Z,4.48
2023-05-08T04:41:33.063Z,4.53
2023-05-08T04:43:59.932Z,4.64
2023-05-08T04:46:26.635Z,4.74
2023-05-08T04:48:54.393Z,4.84
2023-05-08T04:51:21.010Z,4.86
2023-05-08T04:53:47.888Z,4.96
2023-05-08T04:56:15.415Z,5.06
2023-05-08T04:58:42.173Z,5.17
2023-05-08T05:01:09.812Z,5.27
2023-05-08T05:03:36.745Z,5.35
2023-05-08T05:06:03.461Z,5.43
2023-05-08T05:08:30.365Z,5.54
2023-05-08T05:10:58.460Z,5.64
2023-05-08T05:13:25.330Z,5.73
2023-05-08T05:15:54.378Z,5.85
2023-05-08T05:18:21.829Z,5.93
2023-05-08T05:20:49.852Z,6.01
2023-05-08T05:23:16.607Z,6.09
2023-05-08T05:25:43.384Z,6.18
2023-05-08T05:28:10.078Z,6.29
2023-05-08T05:30:36.750Z,6.37
2023-05-08T05:33:03.826Z,6.47
2023-05-08T05:35:31.259Z,6.56
2023-05-08T05:37:57.852Z,6.67
2023-05-08T05:40:24.688Z,6.79
2023-05-08T05:42:52.994Z,6.81
2023-05-08T05:45:20.435Z,6.89
2023-05-08T05:47:53.859Z,6.97
2023-05-08T05:50:22.726Z,7.06
2023-05-08T05:52:50.155Z,7.11
2023-05-08T05:55:17.150Z,7.18
2023-05-08T05:57:46.378Z,7.23
2023-05-08T06:00:13.492Z,7.28
2023-05-08T06:02:46.803Z,7.34
2023-05-08T06:05:15.746Z,7.38
2023-05-08T06:07:42.283Z,7.49
2023-05-08T06:10:09.243Z,7.63
2023-05-08T06:12:35.938Z,7.69
2023-05-08T06:15:03.521Z,7.79
2023-05-08T06:17:31.773Z,7.84
2023-05-08T06:19:58.493Z,7.83
2023-05-08T06:22:25.747Z,7.92
2023-05-08T06:24:55.683Z,7.99
2023-05-08T06:27:22.592Z,8.03
2023-05-08T06:29:52.932Z,8.12
2023-05-08T06:32:21.226Z,8.22
2023-05-08T06:34:48.613Z,8.32
2023-05-08T06:37:15.494Z,8.41
2023-05-08T06:39:42.065Z,8.50
2023-05-08T06:42:09.093Z,8.66
2023-05-08T06:44:40.834Z,8.80
2023-05-08T06:47:08.427Z,8.79
2023-05-08T06:49:38.451Z,8.88
2023-05-08T06:52:05.159Z,8.85
2023-05-08T06:54:31.798Z,8.80
2023-05-08T06:56:58.415Z,8.98
2023-05-08T06:59:25.068Z,9.13
2023-05-08T07:01:51.677Z,9.16
2023-05-08T07:04:18.511Z,9.28
2023-05-08T07:06:45.131Z,9.36
2023-05-08T07:09:12.068Z,9.53
2023-05-08T07:11:38.802Z,9.65
2023-05-08T07:14:05.355Z,9.68
2023-05-08T07:16:32.603Z,9.79
2023-05-08T07:18:59.360Z,9.85
2023-05-08T07:21:26.329Z,9.83
2023-05-08T07:23:53.824Z,9.79
2023-05-08T07:26:21.683Z,9.82
2023-05-08T07:28:48.860Z,9.95
2023-05-08T07:31:15.623Z,10.12
2023-05-08T07:33:42.905Z,10.20
2023-05-08T07:36:09.534Z,10.29
2023-05-08T07:38:36.689Z,10.35
2023-05-08T07:41:05.188Z,10.48
2023-05-08T07:43:32.096Z,10.63
2023-05-08T07:45:59.078Z,10.76
2023-05-08T07:48:25.927Z,10.90
2023-05-08T07:50:52.586Z,10.83
2023-05-08T07:53:19.180Z,10.88
2023-05-08T07:55:45.744Z,10.93
2023-05-08T07:58:12.306Z,10.87
2023-05-08T08:00:39.668Z,10.96
2023-05-08T08:03:07.210Z,11.17
2023-05-08T08:05:33.912Z,11.42
2023-05-08T08:08:00.478Z,11.57
2023-05-08T08:10:27.544Z,11.66
2023-05-08T08:12:54.426Z,11.67
2023-05-08T08:15:21.025Z,11.82
2023-05-08T08:17:47.594Z,12.00
2023-05-08T08:20:14.545Z,12.07
2023-05-08T08:22:41.230Z,12.20
2023-05-08T08:25:08.546Z,12.27
2023-05-08T08:27:35.530Z,12.55
2023-05-08T08:30:16.319Z,12.75
2023-05-08T08:32:44.214Z,12.98
2023-05-08T08:35:11.289Z,13.10
2023-05-08T08:37:38.162Z,13.33
2023-05-08T08:40:05.593Z,13.59
2023-05-08T08:42:32.233Z,13.70
2023-05-08T08:44:58.849Z,13.79
2023-05-08T08:47:29.492Z,13.81
2023-05-08T08:49:58.133Z,13.95
2023-05-08T08:52:37.684Z,14.29
2023-05-08T08:55:08.443Z,14.68
2023-05-08T08:57:37.112Z,15.06
2023-05-08T09:00:05.378Z,15.26
2023-05-08T09:02:32.314Z,15.54
2023-05-08T09:04:59.465Z,15.63
2023-05-08T09:07:26.836Z,15.84
2023-05-08T09:09:54.325Z,15.98
2023-05-08T09:12:21.023Z,16.25
2023-05-08T09:14:47.920Z,16.50
2023-05-08T09:17:14.518Z,16.74
2023-05-08T09:19:42.142Z,16.88
2023-05-08T09:22:10.633Z,17.17
2023-05-08T09:24:58.820Z,17.62
2023-05-08T09:27:27.501Z,18.94
2023-05-08T09:30:05.114Z,20.67
2023-05-08T09:32:35.964Z,21.52
2023-05-08T09:35:03.494Z,22.16
2023-05-08T09:37:30.404Z,22.91
2023-05-08T09:40:21.157Z,23.30
2023-05-08T09:42:49.968Z,24.06
2023-05-08T09:45:28.201Z,23.48
2023-05-08T09:47:55.247Z,24.07
2023-05-08T09:50:21.944Z,23.72
2023-05-08T09:52:49.495Z,24.11
2023-05-08T09:55:16.772Z,24.32
2023-05-08T09:57:57.871Z,24.79
2023-05-08T10:00:29.362Z,24.70
2023-05-08T10:03:02.800Z,25.09
2023-05-08T10:05:35.668Z,24.67
2023-05-08T10:08:23.022Z,24.52
2023-05-08T10:10:49.890Z,24.55
2023-05-08T10:13:16.696Z,24.32
2023-05-08T10:15:44.671Z,24.06
2023-05-08T10:18:12.317Z,24.61
2023-05-08T10:20:42.290Z,24.60
2023-05-08T10:23:14.437Z,24.84
2023-05-08T10:25:54.143Z,25.19
2023-05-08T10:28:40.845Z,25.40
2023-05-08T10:31:08.283Z,25.48
2023-05-08T10:33:37.723Z,25.73
2023-05-08T10:36:05.546Z,26.47
2023-05-08T10:38:33.078Z,27.04
2023-05-08T10:41:02.969Z,26.88
2023-05-08T10:43:33.599Z,27.16
2023-05-08T10:46:08.758Z,27.40
2023-05-08T10:49:05.397Z,27.21
2023-05-08T10:52:05.649Z,27.22
2023-05-08T10:54:53.735Z,26.88
2023-05-08T10:57:20.338Z,27.23
2023-05-08T10:59:47.186Z,27.43
2023-05-08T11:02:15.670Z,27.43
2023-05-08T11:04:43.862Z,27.61
2023-05-08T11:07:12.112Z,27.27
2023-05-08T11:09:41.471Z,27.58
2023-05-08T11:12:30.606Z,27.92
2023-05-08T11:15:04.294Z,27.32
2023-05-08T11:17:30.988Z,26.93
2023-05-08T11:20:03.395Z,27.84
2023-05-08T11:22:34.087Z,27.79
2023-05-08T11:25:09.756Z,28.18
2023-05-08T11:27:48.433Z,27.93
2023-05-08T11:30:25.576Z,27.31
2023-05-08T11:33:13.483Z,26.86
2023-05-08T11:35:51.405Z,26.45
2023-05-08T11:38:23.460Z,25.72
2023-05-08T11:41:00.439Z,25.03
2023-05-08T11:43:33.830Z,24.31
2023-05-08T11:46:05.802Z,24.17
2023-05-08T11:48:33.260Z,24.21
2023-05-08T11:51:00.438Z,24.25
2023-05-08T11:53:28.320Z,23.87
2023-05-08T11:55:55.728Z,23.87
2023-05-08T11:58:22.499Z,24.18
2023-05-08T12:00:49.779Z,24.45
2023-05-08T12:03:19.159Z,24.94
2023-05-08T12:05:46.830Z,24.89
2023-05-08T12:08:14.770Z,24.95
2023-05-08T12:10:53.161Z,24.98
2023-05-08T12:13:30.082Z,24.84
2023-05-08T12:16:00.959Z,24.92
2023-05-08T12:18:29.393Z,25.39
2023-05-08T12:21:00.752Z,25.63
2023-05-08T12:23:29.679Z,24.54
2023-05-08T12:26:00.572Z,24.01
2023-05-08T12:28:27.413Z,22.61
2023-05-08T12:30:54.467Z,22.48
2023-05-08T12:33:21.735Z,22.21
2023-05-08T12:35:48.649Z,22.14
2023-05-08T12:38:15.280Z,22.07
2023-05-08T12:40:46.521Z,22.31
2023-05-08T12:43:13.462Z,22.35
2023-05-08T12:45:42.405Z,22.63
2023-05-08T12:48:13.755Z,23.48
2023-05-08T12:50:42.208Z,24.69
2023-05-08T12:53:17.085Z,25.44
2023-05-08T12:55:58.229Z,25.94
2023-05-08T12:58:29.920Z,26.50
2023-05-08T13:01:11.919Z,26.57
2023-05-08T13:03:40.650Z,27.29
2023-05-08T13:06:18.580Z,26.94
2023-05-08T13:08:45.176Z,27.43
2023-05-08T13:11:11.844Z,27.08
2023-05-08T13:13:38.407Z,27.32
2023-05-08T13:16:06.920Z,28.06
2023-05-08T13:18:36.162Z,28.14
2023-05-08T13:21:03.613Z,28.09
2023-05-08T13:23:30.529Z,28.31
2023-05-08T13:25:57.236Z,28.76
2023-05-08T13:28:23.911Z,28.79
2023-05-08T13:30:50.727Z,29.37
2023-05-08T13:33:17.293Z,28.13
2023-05-08T13:35:44.030Z,28.04
2023-05-08T13:38:10.615Z,28.03
2023-05-08T13:40:37.592Z,27.50
2023-05-08T13:43:04.312Z,27.70
2023-05-08T13:45:32.352Z,28.33
2023-05-08T13:48:00.288Z,28.42
2023-05-08T13:50:27.007Z,28.69
2023-05-08T13:52:54.997Z,28.54
2023-05-08T13:55:23.300Z,28.97
2023-05-08T13:57:50.456Z,28.31
2023-05-08T14:00:17.356Z,27.18
2023-05-08T14:02:44.123Z,26.76
2023-05-08T14:05:11.054Z,26.47
2023-05-08T14:07:37.915Z,26.69
2023-05-08T14:10:04.997Z,26.68
2023-05-08T14:12:36.003Z,26.29
2023-05-08T14:15:06.225Z,25.63
2023-05-08T14:17:32.906Z,24.98
2023-05-08T14:19:59.636Z,24.93
2023-05-08T14:22:26.276Z,25.06
2023-05-08T14:24:53.137Z,24.56
2023-05-08T14:27:19.969Z,23.89
2023-05-08T14:29:46.621Z,22.55
2023-05-08T14:32:13.331Z,21.60
2023-05-08T14:34:40.006Z,20.97
2023-05-08T14:37:06.615Z,20.50
2023-05-08T14:39:33.229Z,20.09
2023-05-08T14:42:21.522Z,19.85
2023-05-08T14:44:49.787Z,19.74
2023-05-08T14:47:17.666Z,19.51
2023-05-08T14:49:44.688Z,19.37
2023-05-08T14:52:11.295Z,19.26
2023-05-08T14:54:38.121Z,19.08
2023-05-08T14:57:04.818Z,18.92
2023-05-08T14:59:31.666Z,19.04
2023-05-08T15:01:58.293Z,18.98
2023-05-08T15:04:26.718Z,18.70
2023-05-08T15:06:53.295Z,18.52
2023-05-08T15:09:19.879Z,18.43
2023-05-08T15:11:46.498Z,18.21
2023-05-08T15:14:13.127Z,18.05
2023-05-08T15:16:39.815Z,17.93
2023-05-08T15:19:06.471Z,18.02
2023-05-08T15:21:33.041Z,18.04
2023-05-08T15:23:59.748Z,18.03
2023-05-08T15:26:26.690Z,17.95
2023-05-08T15:28:53.277Z,17.98
2023-05-08T15:31:21.066Z,17.89
2023-05-08T15:33:48.247Z,17.83
2023-05-08T15:36:15.635Z,17.64
2023-05-08T15:38:42.808Z,17.46
2023-05-08T15:41:14.723Z,17.33
2023-05-08T15:43:42.239Z,17.23
2023-05-08T15:46:08.971Z,17.29
2023-05-08T15:48:35.622Z,17.24
2023-05-08T15:51:02.301Z,17.11
2023-05-08T15:53:28.978Z,17.00
2023-05-08T15:55:56.881Z,16.86
2023-05-08T15:58:23.643Z,16.82
2023-05-08T16:00:50.776Z,16.84
2023-05-08T16:03:17.857Z,16.87
2023-05-08T16:05:44.745Z,16.86
2023-05-08T16:08:12.862Z,16.86
2023-05-08T16:10:41.784Z,16.83
2023-05-08T16:13:08.772Z,16.87
2023-05-08T16:15:35.416Z,16.89
2023-05-08T16:18:02.838Z,16.89
2023-05-08T16:20:29.887Z,16.83
2023-05-08T16:22:56.606Z,16.80
2023-05-08T16:25:23.602Z,16.65
2023-05-08T16:27:50.425Z,16.50
2023-05-08T16:30:18.069Z,16.38
2023-05-08T16:32:46.044Z,16.28
2023-05-08T16:35:14.065Z,16.26
2023-05-08T16:37:41.113Z,16.14
2023-05-08T16:40:08.677Z,16.09
2023-05-08T16:42:36.131Z,16.03
2023-05-08T16:45:05.149Z,15.87
2023-05-08T16:47:32.452Z,15.90
2023-05-08T16:49:59.600Z,15.81
2023-05-08T16:52:26.371Z,15.76
2023-05-08T16:54:53.490Z,15.74
2023-05-08T16:57:20.133Z,15.59
2023-05-08T16:59:46.760Z,15.60
2023-05-08T17:02:18.536Z,15.58
2023-05-08T17:04:47.174Z,15.52
2023-05-08T17:07:15.054Z,15.52
2023-05-08T17:09:42.124Z,15.53
2023-05-08T17:12:09.085Z,15.51
2023-05-08T17:14:40.611Z,15.43
2023-05-08T17:17:08.154Z,15.30
2023-05-08T17:19:34.908Z,15.16
2023-05-08T17:22:02.152Z,15.14
2023-05-08T17:24:32.577Z,15.00
2023-05-08T17:26:59.285Z,14.87
2023-05-08T17:29:25.966Z,14.80
2023-05-08T17:31:52.764Z,14.71
2023-05-08T17:34:21.001Z,14.55
2023-05-08T17:36:47.591Z,14.52
2023-05-08T17:39:14.442Z,14.46
2023-05-08T17:41:41.014Z,14.30
2023-05-08T17:44:07.546Z,14.20
2023-05-08T17:46:34.421Z,14.07
2023-05-08T17:49:01.125Z,14.04
2023-05-08T17:51:27.714Z,13.93
2023-05-08T17:53:56.602Z,13.89
2023-05-08T17:56:23.358Z,13.76
2023-05-08T17:58:52.563Z,13.68
2023-05-08T18:01:20.548Z,13.58
2023-05-08T18:03:48.373Z,13.55
2023-05-08T18:06:16.556Z,13.52
2023-05-08T18:08:43.645Z,13.46
2023-05-08T18:11:17.537Z,13.30
2023-05-08T18:13:45.256Z,13.23
2023-05-08T18:16:14.430Z,13.25
2023-05-08T18:18:41.119Z,13.10
2023-05-08T18:21:07.903Z,13.01
2023-05-08T18:23:34.462Z,12.93
2023-05-08T18:26:01.221Z,12.91
2023-05-08T18:28:28.174Z,12.86
2023-05-08T18:30:54.781Z,12.84
2023-05-08T18:33:21.339Z,12.75
2023-05-08T18:35:48.134Z,12.61
2023-05-08T18:38:17.516Z,12.54
2023-05-08T18:40:45.230Z,12.52
2023-05-08T18:43:11.933Z,12.45
2023-05-08T18:45:40.192Z,12.35
2023-05-08T18:48:08.035Z,12.32
2023-05-08T18:50:34.639Z,12.25
2023-05-08T18:53:01.313Z,12.24
2023-05-08T18:55:27.901Z,12.18
2023-05-08T18:57:54.865Z,12.16
2023-05-08T19:00:21.581Z,12.08
2023-05-08T19:02:49.807Z,12.02
2023-05-08T19:05:16.499Z,11.95
2023-05-08T19:07:43.732Z,11.89
2023-05-08T19:10:10.552Z,11.76
2023-05-08T19:12:37.237Z,11.70
2023-05-08T19:15:04.050Z,11.71
2023-05-08T19:17:30.666Z,11.69
2023-05-08T19:19:57.256Z,11.59
2023-05-08T19:22:23.895Z,11.55
2023-05-08T19:24:50.429Z,11.48
2023-05-08T19:27:16.989Z,11.48
2023-05-08T19:29:43.690Z,11.50
2023-05-08T19:32:10.366Z,11.42
2023-05-08T19:34:39.309Z,11.42
2023-05-08T19:37:06.513Z,11.35
2023-05-08T19:39:33.118Z,11.32
2023-05-08T19:42:00.173Z,11.38
2023-05-08T19:44:28.003Z,11.29
2023-05-08T19:46:54.583Z,11.20
2023-05-08T19:49:24.443Z,11.16
2023-05-08T19:51:51.658Z,11.18
2023-05-08T19:54:18.241Z,11.13
2023-05-08T19:56:44.878Z,11.08
2023-05-08T19:59:11.509Z,11.01
2023-05-08T20:01:38.440Z,10.97
2023-05-08T20:04:05.399Z,10.92
2023-05-08T20:06:32.074Z,10.91
2023-05-08T20:08:58.679Z,10.85
2023-05-08T20:11:26.021Z,10.79
2023-05-08T20:13:52.641Z,10.79
2023-05-08T20:16:20.752Z,10.75
2023-05-08T20:18:47.441Z,10.64
2023-05-08T20:21:14.080Z,10.54
2023-05-08T20:23:41.217Z,10.47
2023-05-08T20:26:08.498Z,10.36
2023-05-08T20:28:35.344Z,10.38
2023-05-08T20:31:02.166Z,10.35
2023-05-08T20:33:28.850Z,10.37
2023-05-08T20:35:56.284Z,10.37
2023-05-08T20:38:22.891Z,10.31
2023-05-08T20:40:49.496Z,10.24
2023-05-08T20:43:19.492Z,10.20
2023-05-08T20:45:46.212Z,10.09
2023-05-08T20:48:12.889Z,9.97
2023-05-08T20:50:39.498Z,9.96
2023-05-08T20:53:06.228Z,9.92
2023-05-08T20:55:32.857Z,9.92
2023-05-08T20:57:59.521Z,9.86
2023-05-08T21:00:26.265Z,9.84
2023-05-08T21:02:52.900Z,9.83
2023-05-08T21:05:19.595Z,9.77
2023-05-08T21:07:46.319Z,9.78
2023-05-08T21:10:13.271Z,9.71
2023-05-08T21:12:40.110Z,9.66
2023-05-08T21:15:07.506Z,9.60
2023-05-08T21:17:34.178Z,9.46
2023-05-08T21:20:00.836Z,9.38
2023-05-08T21:22:27.526Z,9.40
2023-05-08T21:24:54.143Z,9.39
2023-05-08T21:27:21.024Z,9.41
2023-05-08T21:29:47.633Z,9.40
2023-05-08T21:32:14.233Z,9.33
2023-05-08T21:34:41.561Z,9.31
2023-05-08T21:37:08.188Z,9.23
2023-05-08T21:39:35.453Z,9.25
2023-05-08T21:42:03.168Z,9.14
2023-05-08T21:44:29.786Z,9.05
2023-05-08T21:46:56.388Z,8.97
2023-05-08T21:49:23.022Z,8.99
2023-05-08T21:51:49.654Z,8.91
2023-05-08T21:54:16.216Z,8.84
2023-05-08T21:56:42.757Z,8.78
2023-05-08T21:59:09.390Z,8.77
2023-05-08T22:01:35.985Z,8.85
2023-05-08T22:04:02.755Z,8.84
2023-05-08T22:06:29.522Z,8.82
2023-05-08T22:08:56.208Z,8.84
2023-05-08T22:11:22.888Z,8.81
2023-05-08T22:13:49.489Z,8.71
2023-05-08T22:16:16.235Z,8.67
2023-05-08T22:18:42.883Z,8.66
2023-05-08T22:21:09.608Z,8.62
2023-05-08T22:23:36.278Z,8.60
2023-05-08T22:26:03.309Z,8.58
2023-05-08T22:28:29.950Z,8.52
2023-05-08T22:30:56.558Z,8.41
2023-05-08T22:33:23.226Z,8.40
2023-05-08T22:35:49.808Z,8.42
2023-05-08T22:38:16.655Z,8.42
2023-05-08T22:40:43.359Z,8.39
2023-05-08T22:43:10.034Z,8.38
2023-05-08T22:45:37.113Z,8.40
2023-05-08T22:48:03.934Z,8.35
2023-05-08T22:50:30.651Z,8.36
2023-05-08T22:52:57.241Z,8.35
2023-05-08T22:55:23.940Z,8.28
2023-05-08T22:57:50.608Z,8.25
2023-05-08T23:00:17.440Z,8.22
2023-05-08T23:02:44.095Z,8.19
2023-05-08T23:05:10.820Z,8.15
2023-05-08T23:07:37.397Z,8.13
2023-05-08T23:10:04.160Z,8.11
2023-05-08T23:12:30.834Z,8.11
2023-05-08T23:14:57.552Z,8.11
2023-05-08T23:17:24.251Z,8.10
2023-05-08T23:19:51.159Z,8.05
2023-05-08T23:22:18.070Z,7.99
2023-05-08T23:24:44.910Z,7.96
2023-05-08T23:27:12.026Z,7.94
2023-05-08T23:29:38.628Z,7.94
2023-05-08T23:32:05.670Z,7.94
2023-05-08T23:34:32.939Z,7.98
2023-05-08T23:37:02.214Z,7.96
2023-05-08T23:39:29.105Z,7.99
2023-05-08T23:41:55.731Z,7.97
2023-05-08T23:44:22.445Z,8.00
2023-05-08T23:46:49.052Z,8.03
2023-05-08T23:49:15.901Z,8.01
2023-05-08T23:51:42.475Z,8.04
2023-05-08T23:54:09.098Z,8.07
2023-05-08T23:56:35.712Z,8.10
2023-05-08T23:59:02.334Z,8.06
